createdAt,value
2023-01-20T06:45:13.867Z,-1.83
2023-01-20T06:48:23.456Z,-1.84
2023-01-20T06:51:41.988Z,-1.82
2023-01-20T06:54:28.842Z,-1.77
2023-01-20T07:41:04.855Z,-1.33
2023-01-20T08:06:24.233Z,-1.02
2023-01-20T08:11:00.034Z,-1.09
2023-01-20T08:13:10.623Z,-1.07
2023-01-20T08:24:54.406Z,-0.89
2023-01-20T08:49:36.065Z,-0.82
2023-01-20T08:51:38.336Z,-0.79
2023-01-20T08:53:40.885Z,-0.75
2023-01-20T08:58:02.256Z,-0.65
2023-01-20T09:00:06.947Z,-0.61
2023-01-20T09:02:11.725Z,-0.69
2023-01-20T09:04:13.810Z,-0.65
2023-01-20T09:06:52.064Z,-0.62
2023-01-20T09:14:41.846Z,-0.49
2023-01-20T09:16:43.909Z,-0.51
2023-01-20T11:17:43.208Z,0.44
2023-01-20T11:19:57.063Z,0.48
2023-01-20T11:22:14.064Z,0.50
2023-01-20T11:24:43.892Z,0.54
2023-01-20T11:26:46.013Z,0.58
2023-01-20T11:32:42.020Z,0.55
2023-01-20T11:34:49.302Z,0.60
2023-01-20T11:37:05.078Z,0.61
2023-01-20T11:39:08.737Z,0.64
2023-01-20T11:41:24.339Z,0.69
2023-01-20T11:43:37.908Z,0.69
2023-01-20T11:45:40.035Z,0.65
2023-01-20T11:47:46.072Z,0.73
2023-01-20T11:50:04.491Z,0.73
2023-01-20T11:52:19.584Z,0.72
2023-01-20T11:54:29.108Z,0.73
2023-01-20T11:56:31.654Z,0.66
2023-01-20T11:58:48.165Z,0.59
2023-01-20T12:00:59.029Z,0.58
2023-01-20T12:03:36.585Z,0.65
2023-01-20T12:05:57.217Z,0.60
2023-01-20T12:08:01.334Z,0.64
2023-01-20T12:10:20.599Z,0.68
2023-01-20T12:12:38.727Z,0.71
2023-01-20T12:14:57.931Z,0.70
2023-01-20T12:17:21.152Z,0.71
2023-01-20T12:19:27.701Z,0.65
2023-01-20T12:21:35.073Z,0.73
2023-01-20T12:23:48.733Z,0.73
2023-01-20T12:26:06.323Z,0.74
2023-01-20T12:28:23.341Z,0.77
2023-01-20T12:30:56.176Z,0.75
2023-01-20T12:32:58.806Z,0.72
2023-01-20T12:35:00.993Z,0.71
2023-01-20T12:37:17.216Z,0.65
2023-01-20T12:39:34.781Z,0.61
2023-01-20T12:42:06.435Z,0.57
2023-01-20T12:44:24.501Z,0.61
2023-01-20T12:46:32.493Z,0.62
2023-01-20T12:49:28.436Z,0.54
2023-01-20T12:51:39.055Z,0.62
2023-01-20T12:54:23.957Z,0.60
2023-01-20T13:22:29.679Z,0.47
2023-01-20T13:24:32.466Z,0.46
2023-01-20T13:26:34.671Z,0.38
2023-01-20T13:28:36.775Z,0.38
2023-01-20T13:30:51.753Z,0.36
2023-01-20T13:32:54.011Z,0.37
2023-01-20T13:34:56.391Z,0.40
2023-01-20T13:43:58.762Z,0.48
2023-01-20T13:46:04.932Z,0.48
2023-01-20T14:01:44.215Z,0.45
2023-01-20T14:04:04.419Z,0.38
2023-01-20T14:06:07.747Z,0.34
2023-01-20T14:08:20.135Z,0.31
2023-01-20T14:10:34.342Z,0.29
2023-01-20T14:12:41.336Z,0.31
2023-01-20T14:14:43.984Z,0.26
2023-01-20T14:16:45.962Z,0.19
2023-01-20T14:18:48.740Z,0.07
2023-01-20T14:21:23.991Z,0.00
2023-01-20T14:23:31.733Z,0.02
2023-01-20T14:25:33.899Z,0.01
2023-01-20T14:27:41.999Z,0.04
2023-01-20T14:33:18.217Z,0.04
2023-01-20T20:42:02.113Z,-0.90
2023-01-20T22:08:00.137Z,-0.72
2023-01-20T22:12:35.062Z,-0.72
2023-01-20T22:14:38.529Z,-0.68
2023-01-20T22:19:21.687Z,-0.70
2023-01-20T22:22:03.220Z,-0.71
2023-01-20T22:24:08.050Z,-0.71
2023-01-20T22:26:10.238Z,-0.69
2023-01-20T22:28:47.562Z,-0.67
2023-01-20T22:33:14.357Z,-0.63
2023-01-20T22:44:20.597Z,-0.65
